createdAt,value
2022-11-17T00:01:46.363Z,100360.03
2022-11-17T00:04:15.232Z,100340.66
2022-11-17T00:06:43.970Z,100380.69
2022-11-17T00:09:18.144Z,100389.41
2022-11-17T00:12:07.411Z,100410.06
2022-11-17T00:14:41.981Z,100424.88
2022-11-17T00:17:13.381Z,100436.97
2022-11-17T00:20:00.533Z,100431.19
2022-11-17T00:22:32.968Z,100430.38
2022-11-17T00:25:01.839Z,100383.34
2022-11-17T00:27:30.737Z,100395.38
2022-11-17T00:29:59.210Z,100432.63
2022-11-17T00:32:46.178Z,100418.34
2022-11-17T00:35:14.983Z,100389.34
2022-11-17T00:38:02.168Z,100359.69
2022-11-17T00:40:31.162Z,100436.47
2022-11-17T00:42:59.922Z,100465.19
2022-11-17T00:45:28.475Z,100307.31
2022-11-17T00:47:57.128Z,100481.44
2022-11-17T00:50:25.766Z,100470.78
2022-11-17T00:52:54.454Z,100391.84
2022-11-17T00:55:23.761Z,100463.16
2022-11-17T00:57:52.570Z,100425.06
2022-11-17T01:00:22.176Z,100477.84
2022-11-17T01:02:51.032Z,100483.81
2022-11-17T01:05:19.659Z,100503.78
2022-11-17T01:07:48.266Z,100515.91
2022-11-17T01:10:17.204Z,100481.56
2022-11-17T01:12:45.916Z,100494.91
2022-11-17T01:15:14.467Z,100514.78
2022-11-17T01:17:43.189Z,100497.44
2022-11-17T01:20:12.121Z,100495.72
2022-11-17T01:22:40.890Z,100516.28
2022-11-17T01:25:09.786Z,100530.88
2022-11-17T01:27:38.579Z,100548.34
2022-11-17T01:30:08.104Z,100551.78
2022-11-17T01:32:36.783Z,100509.81
2022-11-17T01:35:05.488Z,100521.88
2022-11-17T01:37:34.237Z,100544.53
2022-11-17T01:40:02.857Z,100505.72
2022-11-17T01:42:32.221Z,100543.06
2022-11-17T01:45:25.776Z,100551.59
2022-11-17T01:48:00.845Z,100582.88
2022-11-17T01:50:40.121Z,100578.00
2022-11-17T01:53:15.016Z,100571.13
2022-11-17T01:55:53.100Z,100600.63
2022-11-17T01:58:37.378Z,100597.94
2022-11-17T02:01:06.524Z,100573.00
2022-11-17T02:03:37.735Z,100586.78
2022-11-17T02:06:30.784Z,100601.44
2022-11-17T02:09:03.296Z,100590.03
2022-11-17T02:11:36.699Z,100586.00
2022-11-17T02:14:08.538Z,100594.56
2022-11-17T02:16:36.782Z,100568.69
2022-11-17T02:19:05.347Z,100576.84
2022-11-17T02:22:02.705Z,100638.75
2022-11-17T02:24:55.661Z,100652.28
2022-11-17T02:27:41.207Z,100656.50
2022-11-17T02:30:14.329Z,100656.09
2022-11-17T02:33:01.942Z,100673.00
2022-11-17T02:35:46.370Z,100661.50
2022-11-17T02:38:29.847Z,100677.97
2022-11-17T02:41:20.147Z,100685.56
2022-11-17T02:44:06.201Z,100551.00
2022-11-17T02:46:46.644Z,100632.09
2022-11-17T02:49:26.660Z,100651.31
2022-11-17T02:51:59.961Z,100625.59
2022-11-17T02:54:31.500Z,100678.22
2022-11-17T02:56:59.560Z,100702.38
2022-11-17T02:59:38.494Z,100664.75
2022-11-17T03:02:19.559Z,100727.53
2022-11-17T03:05:18.730Z,100732.78
2022-11-17T03:08:22.093Z,100738.69
2022-11-17T03:11:11.403Z,100678.13
2022-11-17T03:13:51.294Z,100702.81
2022-11-17T03:16:28.895Z,100742.53
2022-11-17T03:19:19.506Z,100732.72
2022-11-17T03:22:05.963Z,100747.63
2022-11-17T03:24:39.902Z,100736.72
2022-11-17T03:27:27.186Z,100743.56
2022-11-17T03:30:00.901Z,100740.34
2022-11-17T03:32:33.913Z,100744.66
2022-11-17T03:35:12.058Z,100763.75
2022-11-17T03:37:46.394Z,100749.22
2022-11-17T03:40:17.648Z,100784.75
2022-11-17T03:42:53.475Z,100762.00
2022-11-17T03:45:28.785Z,100764.47
2022-11-17T03:48:12.485Z,100762.78
2022-11-17T03:50:56.263Z,100801.28
2022-11-17T03:53:24.992Z,100710.31
2022-11-17T03:55:56.183Z,100813.41
2022-11-17T03:58:29.628Z,100758.56
2022-11-17T04:01:00.884Z,100748.97
2022-11-17T04:03:39.006Z,100766.66
2022-11-17T04:06:07.803Z,100774.53
2022-11-17T04:08:36.279Z,100794.06
2022-11-17T04:11:23.055Z,100796.03
2022-11-17T04:14:10.293Z,100789.09
2022-11-17T04:16:39.247Z,100731.25
2022-11-17T04:19:07.724Z,100685.13
2022-11-17T04:21:37.447Z,100808.22
2022-11-17T04:24:06.498Z,100784.59
2022-11-17T04:26:53.425Z,100821.00
2022-11-17T04:29:21.986Z,100761.91
2022-11-17T04:31:50.507Z,100785.69
2022-11-17T04:34:19.017Z,100824.00
2022-11-17T04:36:47.809Z,100805.47
2022-11-17T04:39:16.761Z,100839.97
2022-11-17T04:41:54.711Z,100858.13
2022-11-17T04:44:28.013Z,100874.91
2022-11-17T04:46:57.540Z,100859.16
2022-11-17T04:49:26.944Z,100868.56
2022-11-17T04:51:55.583Z,100857.03
2022-11-17T04:54:25.368Z,100871.84
2022-11-17T04:56:55.297Z,100870.81
2022-11-17T04:59:24.733Z,100868.19
2022-11-17T05:01:53.359Z,100882.91
2022-11-17T05:04:40.831Z,100875.34
2022-11-17T05:07:10.005Z,100860.03
2022-11-17T05:09:38.952Z,100891.91
2022-11-17T05:12:26.051Z,100903.19
2022-11-17T05:14:54.793Z,100897.06
2022-11-17T05:17:23.256Z,100908.19
2022-11-17T05:19:53.947Z,100864.44
2022-11-17T05:22:43.895Z,100865.28
2022-11-17T05:25:12.491Z,100850.97
2022-11-17T05:27:41.025Z,100880.28
2022-11-17T05:30:10.367Z,100930.19
2022-11-17T05:32:38.975Z,100909.03
2022-11-17T05:35:08.108Z,100922.72
2022-11-17T05:37:36.619Z,100911.06
2022-11-17T05:40:05.535Z,100954.59
2022-11-17T05:42:36.023Z,100892.63
2022-11-17T05:45:04.747Z,100924.06
2022-11-17T05:47:33.514Z,100947.78
2022-11-17T05:50:02.003Z,100909.13
2022-11-17T05:52:30.702Z,100943.53
2022-11-17T05:54:59.240Z,100908.25
2022-11-17T05:57:32.856Z,100905.38
2022-11-17T06:00:05.137Z,100944.16
2022-11-17T06:02:52.542Z,100950.72
2022-11-17T06:05:24.707Z,100894.44
2022-11-17T06:07:55.539Z,100956.97
2022-11-17T06:10:24.101Z,100929.38
2022-11-17T06:12:52.763Z,100980.88
2022-11-17T06:15:21.599Z,100933.72
2022-11-17T06:17:56.083Z,100982.59
2022-11-17T06:20:24.038Z,101008.00
2022-11-17T06:22:52.264Z,100996.94
2022-11-17T06:25:21.782Z,101024.25
2022-11-17T06:27:52.524Z,101022.22
2022-11-17T06:30:21.617Z,101016.69
2022-11-17T06:32:51.500Z,100991.84
2022-11-17T06:35:20.157Z,100988.25
2022-11-17T06:37:48.798Z,101020.88
2022-11-17T06:40:18.156Z,101023.59
2022-11-17T06:43:04.763Z,101014.19
2022-11-17T06:45:47.505Z,101019.84
2022-11-17T06:48:18.109Z,101031.59
2022-11-17T06:50:49.446Z,101058.63
2022-11-17T06:53:18.189Z,101047.38
2022-11-17T06:56:05.041Z,101044.28
2022-11-17T06:58:34.295Z,101071.97
2022-11-17T07:01:05.708Z,100974.22
2022-11-17T07:03:38.574Z,101033.72
2022-11-17T07:06:11.271Z,100989.94
2022-11-17T07:08:40.673Z,101039.09
2022-11-17T07:11:12.693Z,101067.44
2022-11-17T07:13:41.488Z,101079.72
2022-11-17T07:16:17.450Z,101080.03
2022-11-17T07:18:48.845Z,101068.75
2022-11-17T07:21:18.774Z,101082.94
2022-11-17T07:23:47.899Z,101081.06
2022-11-17T07:26:16.641Z,101037.94
2022-11-17T07:28:47.757Z,101096.47
2022-11-17T07:31:16.737Z,101076.34
2022-11-17T07:33:45.490Z,101060.50
2022-11-17T07:36:17.769Z,101057.94
2022-11-17T07:38:46.500Z,101077.94
2022-11-17T07:41:15.699Z,101127.94
2022-11-17T07:43:44.535Z,101099.63
2022-11-17T07:46:15.963Z,101106.00
2022-11-17T07:48:45.138Z,101111.84
2022-11-17T07:51:14.763Z,101112.88
2022-11-17T07:53:43.414Z,101120.03
2022-11-17T07:56:12.463Z,101087.47
2022-11-17T07:58:41.667Z,101096.53
2022-11-17T08:01:13.366Z,101114.81
2022-11-17T08:03:42.528Z,101131.31
2022-11-17T08:06:11.822Z,101077.09
2022-11-17T08:08:40.658Z,101083.38
2022-11-17T08:11:13.685Z,101098.22
2022-11-17T08:13:42.937Z,101124.91
2022-11-17T08:16:11.444Z,101117.63
2022-11-17T08:18:40.993Z,101146.56
2022-11-17T08:21:14.764Z,101074.09
2022-11-17T08:23:43.934Z,101146.06
2022-11-17T08:26:13.033Z,101080.94
2022-11-17T08:28:41.846Z,101129.59
2022-11-17T08:31:10.748Z,101150.72
2022-11-17T08:33:40.005Z,101098.41
2022-11-17T08:36:09.164Z,101106.84
2022-11-17T08:38:38.202Z,101126.00
2022-11-17T08:41:09.306Z,101164.13
2022-11-17T08:43:38.614Z,101129.28
2022-11-17T08:46:11.932Z,101171.56
2022-11-17T08:48:41.101Z,101159.63
2022-11-17T08:51:10.267Z,101173.69
2022-11-17T08:53:38.785Z,101114.00
2022-11-17T08:56:08.616Z,101183.41
2022-11-17T08:58:45.169Z,101176.88
2022-11-17T09:01:16.650Z,101206.41
2022-11-17T09:03:47.165Z,101190.19
2022-11-17T09:06:17.433Z,101205.91
2022-11-17T09:08:47.257Z,101207.69
2022-11-17T09:11:17.240Z,101172.56
2022-11-17T09:13:47.496Z,101185.72
2022-11-17T09:16:17.481Z,101202.97
2022-11-17T09:18:46.514Z,101207.25
2022-11-17T09:21:16.929Z,101220.72
2022-11-17T09:23:45.853Z,101225.03
2022-11-17T09:26:16.070Z,101216.13
2022-11-17T09:28:46.050Z,101198.38
2022-11-17T09:31:17.996Z,101198.19
2022-11-17T09:33:47.199Z,101232.31
2022-11-17T09:36:17.385Z,101221.44
2022-11-17T09:38:47.505Z,101240.09
2022-11-17T09:41:22.566Z,101261.09
2022-11-17T09:44:15.008Z,101229.13
2022-11-17T09:47:03.890Z,101234.56
2022-11-17T09:49:36.489Z,101238.28
2022-11-17T09:52:22.828Z,101241.81
2022-11-17T09:55:01.168Z,101150.28
2022-11-17T09:57:50.184Z,101289.63
2022-11-17T10:00:23.777Z,101284.34
2022-11-17T10:02:54.648Z,101262.41
2022-11-17T10:05:26.264Z,101296.59
2022-11-17T10:08:00.816Z,101268.81
2022-11-17T10:10:40.196Z,101254.81
2022-11-17T10:13:24.837Z,101306.19
2022-11-17T10:16:13.300Z,101244.47
2022-11-17T10:18:41.803Z,101286.50
2022-11-17T10:21:10.531Z,101283.47
2022-11-17T10:23:47.536Z,101303.72
2022-11-17T10:26:17.504Z,101282.78
2022-11-17T10:28:46.758Z,101299.75
2022-11-17T10:31:18.065Z,101279.00
2022-11-17T10:33:51.339Z,101323.34
2022-11-17T10:36:31.611Z,101325.72
2022-11-17T10:39:01.655Z,101284.88
2022-11-17T10:41:51.029Z,101306.06
2022-11-17T10:44:28.633Z,101222.03
2022-11-17T10:47:02.714Z,101319.16
2022-11-17T10:49:33.939Z,101338.34
2022-11-17T10:52:15.340Z,101334.06
2022-11-17T10:54:44.493Z,101298.00
2022-11-17T10:57:27.622Z,101273.38
2022-11-17T11:00:01.054Z,101352.56
2022-11-17T11:02:39.817Z,101324.94
2022-11-17T11:05:22.023Z,101354.06
2022-11-17T11:07:50.422Z,101372.94
2022-11-17T11:10:32.862Z,101270.34
2022-11-17T11:13:14.107Z,101362.75
2022-11-17T11:15:43.018Z,101383.72
2022-11-17T11:18:17.183Z,101350.34
2022-11-17T11:21:14.823Z,101375.50
2022-11-17T11:23:53.931Z,101356.63
2022-11-17T11:26:25.620Z,101404.00
2022-11-17T11:29:25.345Z,101338.63
2022-11-17T11:32:01.891Z,101271.03
2022-11-17T11:34:33.758Z,101418.13
2022-11-17T11:37:17.050Z,101382.19
2022-11-17T11:39:59.843Z,101395.00
2022-11-17T11:42:46.953Z,101423.22
2022-11-17T11:45:21.338Z,101421.63
2022-11-17T11:48:14.948Z,101430.03
2022-11-17T11:50:50.097Z,101437.69
2022-11-17T11:53:38.680Z,101358.41
2022-11-17T11:56:29.608Z,101425.25
2022-11-17T11:59:42.936Z,101434.38
2022-11-17T12:02:27.951Z,101434.16
2022-11-17T12:05:01.789Z,101441.72
2022-11-17T12:07:45.852Z,101441.53
2022-11-17T12:10:25.356Z,101442.22
2022-11-17T12:12:54.648Z,101451.72
2022-11-17T12:15:23.420Z,101454.34
2022-11-17T12:18:04.818Z,101399.38
2022-11-17T12:20:39.608Z,101460.63
2022-11-17T12:23:25.998Z,101466.28
2022-11-17T12:25:57.109Z,101477.13
2022-11-17T12:28:37.254Z,101466.06
2022-11-17T12:31:12.375Z,101435.91
2022-11-17T12:33:56.345Z,101475.47
2022-11-17T12:36:30.240Z,101455.50
2022-11-17T12:39:02.509Z,101449.41
2022-11-17T12:41:49.661Z,101483.19
2022-11-17T12:44:39.643Z,101497.31
2022-11-17T12:47:14.287Z,101491.53
2022-11-17T12:50:03.528Z,101491.53
2022-11-17T12:52:31.585Z,101469.97
2022-11-17T12:55:24.748Z,101498.34
2022-11-17T12:58:09.151Z,101478.50
2022-11-17T13:01:06.485Z,101494.75
2022-11-17T13:03:45.332Z,101471.22
2022-11-17T13:09:03.449Z,101383.50
2022-11-17T13:11:31.771Z,101493.22
2022-11-17T16:51:21.506Z,101606.06
2022-11-17T16:53:57.407Z,101625.78
2022-11-17T16:56:26.350Z,101611.38
2022-11-17T16:58:55.612Z,101629.31
2022-11-17T17:01:26.987Z,101611.63
2022-11-17T17:04:00.493Z,101638.06
2022-11-17T17:06:29.451Z,101570.59
2022-11-17T17:09:00.371Z,101639.84
2022-11-17T17:11:32.332Z,101633.25
2022-11-17T17:14:05.891Z,101660.09
2022-11-17T17:16:39.131Z,101581.97
2022-11-17T17:20:07.864Z,101623.19
2022-11-17T17:22:37.194Z,101641.66
2022-11-17T17:25:06.366Z,101666.16
2022-11-17T17:27:35.122Z,101623.19
2022-11-17T17:30:03.951Z,101642.63
2022-11-17T17:32:32.910Z,101645.44
2022-11-17T17:35:01.803Z,101611.19
2022-11-17T17:37:34.066Z,101634.78
2022-11-17T17:40:03.152Z,101607.75
2022-11-17T17:42:31.909Z,101629.00
2022-11-17T17:45:00.522Z,101608.41
2022-11-17T17:47:29.497Z,101635.09
2022-11-17T17:49:58.379Z,101648.88
